Time;durP1;ratioP1;P1;durP2;ratioP2;P2;SDS_P1;SDS_P2;PMS_P1;PMS_P2;Temp;Humidity;BMP_temperature;BMP_pressure;BME280_temperature;BME280_humidity;BME280_pressure;Samples;Min_cycle;Max_cycle;Signal;HPM_P1;HPM_P2
2022/12/20 00:01:24;;;;;;;37.20;18.20;;;;;;;1.51;91.78;100563.25;5016924;28;20045;-82
2022/12/20 00:03:53;;;;;;;44.75;19.70;;;;;;;1.51;91.81;100565.88;5018528;28;20128;-83
2022/12/20 00:06:20;;;;;;;55.40;23.08;;;;;;;1.51;91.92;100565.88;5024160;28;20116;-82
2022/12/20 00:08:55;;;;;;;45.13;22.30;;;;;;;1.50;92.06;100568.53;4981852;28;20382;-81
2022/12/20 00:11:22;;;;;;;43.53;19.75;;;;;;;1.51;92.28;100565.03;4982616;28;20064;-83
2022/12/20 00:13:49;;;;;;;41.92;18.45;;;;;;;1.50;92.36;100563.31;5004598;28;20188;-82
2022/12/20 00:16:18;;;;;;;44.25;19.83;;;;;;;1.50;92.20;100560.69;5030868;28;20063;-82
2022/12/20 00:18:45;;;;;;;44.85;19.60;;;;;;;1.50;92.38;100558.94;5032494;28;20106;-82
2022/12/20 00:21:13;;;;;;;49.17;20.05;;;;;;;1.52;92.67;100538.78;5008615;28;20041;-82
2022/12/20 00:23:40;;;;;;;40.50;18.92;;;;;;;1.52;92.50;100540.53;5034387;28;20042;-82
2022/12/20 00:26:12;;;;;;;40.33;18.20;;;;;;;1.52;92.46;100545.78;5024759;28;20500;-82
2022/12/20 00:28:41;;;;;;;35.20;16.67;;;;;;;1.52;92.58;100546.63;5002110;28;20493;-82
2022/12/20 00:31:10;;;;;;;42.15;20.27;;;;;;;1.53;92.85;100544.88;4999355;28;20052;-81
2022/12/20 00:33:38;;;;;;;42.65;21.02;;;;;;;1.53;92.88;100547.50;4993075;28;20052;-82
2022/12/20 00:36:08;;;;;;;41.42;20.50;;;;;;;1.52;93.00;100546.63;5007500;28;20052;-81
2022/12/20 00:38:35;;;;;;;47.55;21.00;;;;;;;1.52;93.22;100541.38;5020560;28;20041;-81
2022/12/20 00:41:07;;;;;;;48.55;24.08;;;;;;;1.52;93.29;100530.06;5004669;28;20044;-81
2022/12/20 00:43:36;;;;;;;57.90;27.40;;;;;;;1.54;93.48;100522.16;5005292;28;20056;-81
2022/12/20 00:46:03;;;;;;;61.92;27.70;;;;;;;1.51;93.75;100516.13;5001501;28;20057;-81
2022/12/20 00:48:31;;;;;;;57.15;28.17;;;;;;;1.51;93.72;100513.53;5007081;28;20571;-81
2022/12/20 00:51:03;;;;;;;66.13;29.63;;;;;;;1.52;93.65;100520.44;5003287;28;20045;-81
2022/12/20 00:53:31;;;;;;;61.65;29.23;;;;;;;1.51;94.00;100513.53;5015466;28;20041;-80
2022/12/20 00:55:58;;;;;;;66.53;29.88;;;;;;;1.50;94.00;100518.81;5012711;28;20130;-82
2022/12/20 00:58:26;;;;;;;63.30;28.67;;;;;;;1.51;93.84;100516.13;4988867;28;20103;-81
2022/12/20 01:00:55;;;;;;;61.28;28.52;;;;;;;1.52;93.83;100525.69;5003047;28;20108;-81
2022/12/20 01:03:25;;;;;;;68.82;30.23;;;;;;;1.52;93.91;100516.97;5010885;28;20182;-81
2022/12/20 01:06:00;;;;;;;71.85;31.77;;;;;;;1.50;94.12;100511.84;5029414;28;20103;-80
2022/12/20 01:08:28;;;;;;;67.80;31.42;;;;;;;1.52;94.10;100516.97;5005940;28;20045;-80
2022/12/20 01:11:00;;;;;;;62.30;31.00;;;;;;;1.51;94.13;100517.91;4998244;28;20132;-80
2022/12/20 01:13:28;;;;;;;59.80;29.65;;;;;;;1.51;94.51;100518.75;5010356;28;20124;-80
2022/12/20 01:15:55;;;;;;;64.53;29.27;;;;;;;1.52;94.44;100524.84;5021513;28;20126;-81
2022/12/20 01:18:22;;;;;;;59.85;29.80;;;;;;;1.53;94.53;100526.56;5018254;28;20045;-81
2022/12/20 01:20:59;;;;;;;54.55;25.77;;;;;;;1.54;94.45;100535.25;5018609;28;20061;-81
2022/12/20 01:23:26;;;;;;;51.40;25.13;;;;;;;1.56;94.45;100521.19;4995678;28;20056;-81
2022/12/20 01:25:53;;;;;;;53.03;24.00;;;;;;;1.57;94.42;100516.81;5009464;28;20041;-81
2022/12/20 01:28:20;;;;;;;53.90;26.10;;;;;;;1.55;95.07;100516.84;5006138;28;20408;-81
2022/12/20 01:30:47;;;;;;;63.40;28.58;;;;;;;1.55;94.83;100502.91;4995511;28;20134;-82
2022/12/20 01:33:14;;;;;;;64.95;28.73;;;;;;;1.56;94.80;100507.25;4998732;28;20045;-82
2022/12/20 01:35:40;;;;;;;63.50;29.88;;;;;;;1.55;94.81;100511.63;5007204;28;20041;-81
2022/12/20 01:38:07;;;;;;;60.53;29.25;;;;;;;1.55;94.99;100501.16;5019141;28;20047;-82
2022/12/20 01:40:38;;;;;;;64.90;30.40;;;;;;;1.57;94.90;100520.28;5036204;28;20041;-81
2022/12/20 01:43:04;;;;;;;64.70;30.20;;;;;;;1.57;95.06;100515.03;5005412;28;20040;-82
2022/12/20 01:45:31;;;;;;;74.30;32.10;;;;;;;1.56;95.10;100507.25;5021196;28;20041;-81
2022/12/20 01:47:59;;;;;;;63.97;28.90;;;;;;;1.56;95.14;100522.97;4989225;28;20060;-81
2022/12/20 01:50:26;;;;;;;54.78;27.02;;;;;;;1.56;95.22;100531.66;4992733;28;20045;-82
2022/12/20 01:52:53;;;;;;;52.35;26.63;;;;;;;1.57;95.21;100527.28;4989270;28;20052;-81
2022/12/20 01:55:25;;;;;;;59.75;26.70;;;;;;;1.57;95.10;100519.41;4989284;28;20063;-81
2022/12/20 01:57:56;;;;;;;61.90;28.65;;;;;;;1.58;95.05;100516.75;4991284;28;20165;-81
2022/12/20 02:00:23;;;;;;;65.32;29.63;;;;;;;1.57;95.40;100512.41;5001214;28;20493;-81
2022/12/20 02:02:50;;;;;;;59.97;28.83;;;;;;;1.57;95.30;100509.81;4990400;28;20059;-81
2022/12/20 02:05:20;;;;;;;57.17;27.35;;;;;;;1.58;95.37;100510.66;4995330;28;20568;-82
2022/12/20 02:07:49;;;;;;;58.17;27.55;;;;;;;1.58;95.21;100511.53;5014293;28;20083;-82
2022/12/20 02:10:16;;;;;;;56.45;25.67;;;;;;;1.60;95.40;100514.06;5028748;28;20045;-81
2022/12/20 02:12:45;;;;;;;48.17;24.17;;;;;;;1.60;95.38;100504.44;5019116;28;20130;-81
2022/12/20 02:15:54;;;;;;;51.35;24.55;;;;;;;1.58;96.09;100510.66;4988999;28;20053;-80
2022/12/20 02:18:45;;;;;;;56.17;26.55;;;;;;;1.60;95.50;100499.19;4922281;28;20441;-81
2022/12/20 02:21:23;;;;;;;66.28;29.50;;;;;;;1.60;95.64;100488.72;5003639;28;20409;-81
2022/12/20 02:24:06;;;;;;;62.20;27.85;;;;;;;1.57;96.07;100491.47;4996052;28;20053;-81
2022/12/20 02:26:58;;;;;;;64.82;30.13;;;;;;;1.58;95.91;100480.13;5016496;28;20057;-80
2022/12/20 02:29:57;;;;;;;63.35;29.05;;;;;;;1.55;96.37;100464.50;5005268;28;20041;-81
2022/12/20 02:32:35;;;;;;;64.20;29.58;;;;;;;1.58;96.18;100464.41;4930043;28;20049;-81
2022/12/20 02:35:06;;;;;;;58.53;27.80;;;;;;;1.60;95.84;100457.31;4972493;28;20044;-81
2022/12/20 02:37:33;;;;;;;54.72;26.95;;;;;;;1.60;96.13;100452.09;5003488;28;20049;-81
2022/12/20 02:40:02;;;;;;;68.28;28.67;;;;;;;1.61;96.05;100461.66;5021866;28;20061;-81
2022/12/20 02:42:30;;;;;;;60.15;28.67;;;;;;;1.62;96.21;100446.78;5000679;28;20045;-81
2022/12/20 02:45:14;;;;;;;48.47;25.48;;;;;;;1.60;96.25;100443.38;4984464;28;20053;-81
2022/12/20 02:47:55;;;;;;;52.28;26.33;;;;;;;1.60;96.31;100436.38;4936966;28;20059;-81
2022/12/20 02:50:36;;;;;;;49.28;24.52;;;;;;;1.59;96.33;100429.44;4981820;28;20057;-81
2022/12/20 02:53:04;;;;;;;55.60;25.92;;;;;;;1.62;96.18;100431.94;4978335;28;20057;-83
2022/12/20 02:55:43;;;;;;;53.58;24.65;;;;;;;1.60;96.40;100428.53;5010417;28;20067;-81
2022/12/20 02:58:33;;;;;;;47.00;22.45;;;;;;;1.60;96.59;100433.75;4975256;28;20446;-81
2022/12/20 03:01:05;;;;;;;49.28;22.35;;;;;;;1.64;96.06;100424.88;5001646;28;20052;-82
2022/12/20 03:03:34;;;;;;;39.75;19.45;;;;;;;1.65;96.03;100418.72;5012268;28;20206;-81
2022/12/20 03:06:01;;;;;;;41.70;17.77;;;;;;;1.66;96.30;100412.56;5000879;28;20471;-81
2022/12/20 03:08:29;;;;;;;57.53;25.02;;;;;;;1.67;96.33;100411.66;5010092;28;20048;-81
2022/12/20 03:10:56;;;;;;;48.65;23.67;;;;;;;1.68;96.31;100407.25;5008121;28;20140;-83
2022/12/20 03:13:24;;;;;;;57.65;26.58;;;;;;;1.68;96.28;100409.88;4988768;28;20041;-81
2022/12/20 03:15:59;;;;;;;53.45;25.35;;;;;;;1.68;96.13;100408.13;4985104;28;20037;-81
2022/12/20 03:18:26;;;;;;;48.90;24.42;;;;;;;1.69;96.32;100408.97;4985016;28;20093;-83
2022/12/20 03:20:53;;;;;;;49.30;25.70;;;;;;;1.68;96.55;100408.13;5009325;28;20544;-81
2022/12/20 03:23:20;;;;;;;52.60;25.65;;;;;;;1.69;96.43;100419.44;4997814;28;20404;-81
2022/12/20 03:25:47;;;;;;;43.03;21.35;;;;;;;1.68;96.50;100423.84;5019087;28;20057;-82
2022/12/20 03:28:23;;;;;;;52.90;24.83;;;;;;;1.68;96.61;100426.47;5017779;28;20061;-81
2022/12/20 03:30:52;;;;;;;49.80;22.63;;;;;;;1.69;96.59;100433.38;5004712;28;20063;-81
2022/12/20 03:33:19;;;;;;;54.92;25.52;;;;;;;1.70;96.22;100434.22;5006487;28;20428;-82
2022/12/20 03:35:47;;;;;;;43.90;21.27;;;;;;;1.71;96.47;100428.09;5003553;28;20504;-81
2022/12/20 03:38:16;;;;;;;44.38;20.95;;;;;;;1.71;96.34;100420.25;5001322;28;20045;-81
2022/12/20 03:40:44;;;;;;;45.58;20.35;;;;;;;1.70;96.66;100415.91;5035052;28;20056;-81
2022/12/20 03:43:13;;;;;;;46.75;21.90;;;;;;;1.70;96.65;100418.53;4983636;28;20460;-81
2022/12/20 03:45:41;;;;;;;52.20;23.55;;;;;;;1.69;96.83;100411.59;5008741;28;20040;-82
2022/12/20 03:48:08;;;;;;;47.30;24.83;;;;;;;1.70;96.77;100418.53;4981587;28;20374;-82
2022/12/20 03:50:36;;;;;;;46.85;23.92;;;;;;;1.71;96.83;100425.47;5004108;28;20068;-81
2022/12/20 03:53:02;;;;;;;55.10;25.05;;;;;;;1.68;97.47;100415.09;5024654;28;20062;-82
2022/12/20 03:55:31;;;;;;;48.40;22.45;;;;;;;1.66;97.78;100425.66;4991633;28;20057;-81
2022/12/20 03:57:58;;;;;;;61.38;25.55;;;;;;;1.64;98.28;100419.63;5002375;28;20049;-81
2022/12/20 04:00:30;;;;;;;57.08;26.10;;;;;;;1.63;98.26;100420.56;5030652;28;20099;-81
2022/12/20 04:03:15;;;;;;;55.20;24.23;;;;;;;1.64;97.77;100418.78;4967699;28;20419;-81
2022/12/20 04:05:43;;;;;;;53.35;24.63;;;;;;;1.64;97.79;100419.63;5006198;28;20073;-83
2022/12/20 04:08:11;;;;;;;45.85;22.35;;;;;;;1.65;97.54;100410.84;5005457;28;20080;-81
2022/12/20 04:11:14;;;;;;;39.10;20.48;;;;;;;1.67;97.47;100411.66;4996210;28;21210;-81
2022/12/20 04:13:31;;;;;;;41.38;20.35;;;;;;;1.65;97.43;100402.16;4980432;28;20041;-81
2022/12/20 04:15:58;;;;;;;40.22;19.60;;;;;;;1.66;97.25;100412.56;5022315;28;20572;-81
2022/12/20 04:18:29;;;;;;;42.63;20.00;;;;;;;1.68;97.28;100405.50;4974089;28;20042;-81
2022/12/20 04:21:02;;;;;;;40.58;20.00;;;;;;;1.68;97.35;100407.25;5011925;28;20037;-81
2022/12/20 04:23:30;;;;;;;37.67;18.85;;;;;;;1.69;97.23;100407.19;4995606;28;20049;-81
2022/12/20 04:25:57;;;;;;;41.67;19.55;;;;;;;1.70;97.28;100402.81;5007008;28;20041;-82
2022/12/20 04:28:25;;;;;;;49.53;21.88;;;;;;;1.69;97.56;100391.50;5001663;28;20094;-82
2022/12/20 04:30:54;;;;;;;51.83;22.92;;;;;;;1.69;97.41;100390.66;5015469;28;20060;-81
2022/12/20 04:33:24;;;;;;;45.30;21.98;;;;;;;1.69;97.36;100401.13;5007868;28;20052;-81
2022/12/20 04:35:53;;;;;;;42.97;20.10;;;;;;;1.68;97.49;100392.44;5021105;28;20128;-81
2022/12/20 04:38:21;;;;;;;43.67;20.10;;;;;;;1.69;97.50;100385.41;4996337;28;20568;-81
2022/12/20 04:40:51;;;;;;;47.97;21.85;;;;;;;1.69;97.48;100385.41;4996373;28;20143;-82
2022/12/20 04:43:19;;;;;;;45.33;21.38;;;;;;;1.68;97.38;100381.06;5010962;28;20041;-82
2022/12/20 04:45:47;;;;;;;39.88;20.05;;;;;;;1.69;97.38;100373.16;5005051;28;20040;-81
2022/12/20 04:48:15;;;;;;;44.00;21.83;;;;;;;1.70;97.38;100374.00;5018415;28;20044;-81
2022/12/20 04:51:02;;;;;;;40.25;21.85;;;;;;;1.69;97.62;100361.84;5027299;28;20490;-81
2022/12/20 04:53:48;;;;;;;43.42;21.02;;;;;;;1.71;97.51;100362.66;5003820;28;20041;-83
2022/12/20 04:56:53;;;;;;;46.95;21.45;;;;;;;1.69;97.51;100359.22;4944265;28;20051;-81
2022/12/20 04:59:22;;;;;;;43.90;21.90;;;;;;;1.69;97.37;100357.47;5004910;28;20118;-82
2022/12/20 05:01:52;;;;;;;43.00;21.13;;;;;;;1.70;97.47;100367.00;5009504;28;20049;-82
2022/12/20 05:04:36;;;;;;;43.13;21.10;;;;;;;1.71;97.07;100357.41;5003115;28;20043;-81
2022/12/20 05:07:04;;;;;;;50.13;23.30;;;;;;;1.72;97.35;100359.94;5019401;28;20057;-81
2022/12/20 05:09:31;;;;;;;46.53;23.17;;;;;;;1.73;97.31;100361.66;5006591;28;20454;-82
2022/12/20 05:11:59;;;;;;;45.72;21.02;;;;;;;1.74;97.42;100357.25;5014809;28;20050;-81
2022/12/20 05:14:26;;;;;;;46.22;21.60;;;;;;;1.74;97.38;100359.88;4997474;28;20146;-81
2022/12/20 05:16:52;;;;;;;45.53;21.88;;;;;;;1.73;97.60;100350.31;4995469;28;20099;-82
2022/12/20 05:19:19;;;;;;;45.30;21.42;;;;;;;1.76;97.25;100351.97;5007196;28;20046;-81
2022/12/20 05:27:30;;;;;;;42.42;20.23;;;;;;;1.76;97.85;100362.44;4991366;28;20623;-81
2022/12/20 05:29:57;;;;;;;42.95;21.23;;;;;;;1.77;97.57;100364.97;5020217;28;20049;-82
2022/12/20 05:33:00;;;;;;;48.78;23.10;;;;;;;1.73;97.87;100352.94;5002979;28;20136;-81
2022/12/20 05:35:28;;;;;;;43.80;20.27;;;;;;;1.76;97.65;100358.06;5002170;28;21046;-81
2022/12/20 05:38:02;;;;;;;50.15;22.35;;;;;;;1.75;97.65;100345.88;4986533;28;20057;-81
2022/12/20 05:41:26;;;;;;;55.25;24.10;;;;;;;1.71;98.67;100341.69;4998018;28;20172;-81
2022/12/20 05:43:53;;;;;;;44.83;21.15;;;;;;;1.73;98.06;100345.94;4884859;28;20644;-81
2022/12/20 05:46:20;;;;;;;43.47;20.08;;;;;;;1.76;97.82;100344.97;4950170;28;20070;-80
2022/12/20 05:48:54;;;;;;;43.08;20.95;;;;;;;1.79;97.66;100338.75;4978256;28;20633;-82
2022/12/20 05:51:49;;;;;;;41.92;20.73;;;;;;;1.75;97.93;100330.16;4956523;28;20053;-81
2022/12/20 05:54:21;;;;;;;40.95;19.15;;;;;;;1.79;97.64;100331.72;4913462;28;20054;-80
2022/12/20 05:56:54;;;;;;;36.17;19.17;;;;;;;1.80;97.79;100327.34;4957925;28;20108;-81
2022/12/20 05:59:29;;;;;;;39.53;19.65;;;;;;;1.81;97.67;100332.53;4959264;28;20089;-81
2022/12/20 06:01:57;;;;;;;38.70;18.63;;;;;;;1.82;97.75;100331.59;4959842;28;20054;-81
2022/12/20 06:04:24;;;;;;;39.95;20.08;;;;;;;1.84;97.76;100339.38;4965030;28;20066;-81
2022/12/20 06:07:40;;;;;;;38.88;19.20;;;;;;;1.81;97.76;100339.53;4944497;28;20100;-81
2022/12/20 06:10:08;;;;;;;37.63;17.67;;;;;;;1.84;97.73;100339.38;4868274;28;20075;-81
2022/12/20 06:13:08;;;;;;;34.67;17.73;;;;;;;1.80;98.00;100336.03;4888069;28;20143;-84
2022/12/20 06:37:13;;;;;;;35.83;15.48;;;;;;;1.80;97.84;100307.25;4964326;28;20121;-81
2022/12/20 06:39:41;;;;;;;34.33;15.32;;;;;;;1.82;97.75;100310.66;5347730;22;20040;-83
2022/12/20 06:50:32;;;;;;;31.48;14.60;;;;;;;1.87;97.65;100327.00;4972138;28;20816;-82
2022/12/20 06:52:59;;;;;;;41.03;17.48;;;;;;;1.91;97.74;100325.13;5004360;28;20517;-83
2022/12/20 06:59:57;;;;;;;40.50;17.42;;;;;;;1.88;98.08;100318.25;5001490;28;20040;-84
2022/12/20 07:02:24;;;;;;;45.20;20.25;;;;;;;1.87;98.63;100324.38;5003860;28;20103;-83
2022/12/20 07:04:54;;;;;;;41.38;18.85;;;;;;;1.88;98.56;100327.84;5020691;28;20061;-84
2022/12/20 07:15:33;;;;;;;38.58;18.08;;;;;;;1.86;98.53;100312.22;4967389;28;20041;-84
2022/12/20 07:18:00;;;;;;;32.78;16.38;;;;;;;1.90;98.40;100303.28;4902953;28;20049;-85
2022/12/20 07:20:27;;;;;;;38.47;18.27;;;;;;;1.92;98.30;100308.47;4989555;28;20052;-84
2022/12/20 07:22:54;;;;;;;27.52;14.52;;;;;;;1.95;97.87;100300.47;5004130;28;20455;-84
2022/12/20 07:25:21;;;;;;;33.33;16.55;;;;;;;1.94;98.07;100302.25;5002863;28;20049;-85
2022/12/20 07:27:51;;;;;;;31.73;15.63;;;;;;;1.96;97.89;100310.03;5003226;28;20049;-85
2022/12/20 07:30:19;;;;;;;39.38;17.83;;;;;;;1.97;98.02;100313.50;4987766;28;20116;-84
2022/12/20 07:32:46;;;;;;;32.67;16.70;;;;;;;1.99;97.76;100314.28;5020004;28;20053;-83
2022/12/20 07:35:13;;;;;;;34.20;17.30;;;;;;;1.99;97.72;100301.19;4994610;28;20681;-84
2022/12/20 07:37:40;;;;;;;43.78;17.70;;;;;;;2.00;97.96;100308.97;4996072;28;20052;-85
2022/12/20 07:40:48;;;;;;;38.40;18.30;;;;;;;1.96;98.04;100304.81;5002707;28;20041;-85
2022/12/20 07:43:14;;;;;;;42.85;19.30;;;;;;;2.00;98.06;100302.88;4965929;28;20116;-83
2022/12/20 07:50:06;;;;;;;42.70;20.33;;;;;;;1.97;97.98;100314.34;4981936;28;20080;-83
2022/12/20 07:53:10;;;;;;;53.25;21.55;;;;;;;1.95;98.33;100314.41;5016595;28;20092;-84
2022/12/20 07:55:38;;;;;;;50.65;19.88;;;;;;;1.99;98.63;100311.66;4974084;28;20053;-83
2022/12/20 08:02:21;;;;;;;38.58;17.90;;;;;;;1.97;98.17;100295.16;4987532;28;20029;-84
2022/12/20 08:04:49;;;;;;;34.55;16.02;;;;;;;2.01;98.02;100294.09;5015318;28;20060;-83
2022/12/20 08:07:16;;;;;;;29.80;15.25;;;;;;;2.04;98.01;100299.22;5005395;28;20064;-84
2022/12/20 08:09:44;;;;;;;36.08;15.77;;;;;;;2.07;97.85;100310.38;5003699;28;20052;-83
2022/12/20 08:16:42;;;;;;;37.28;18.10;;;;;;;2.08;98.10;100300.75;4995256;28;20546;-85
2022/12/20 08:19:09;;;;;;;41.97;17.98;;;;;;;2.09;97.80;100308.56;5004291;28;20499;-85
2022/12/20 08:21:36;;;;;;;46.45;20.55;;;;;;;2.10;97.64;100306.78;4991480;28;20111;-84
2022/12/20 08:24:04;;;;;;;46.95;21.02;;;;;;;2.11;97.88;100298.88;5002163;28;20423;-84
2022/12/20 08:26:30;;;;;;;43.67;20.30;;;;;;;2.13;98.13;100298.78;5017732;28;20041;-83
2022/12/20 08:28:57;;;;;;;43.95;20.63;;;;;;;2.13;98.21;100304.84;4994145;28;20049;-84
2022/12/20 08:31:24;;;;;;;46.92;20.63;;;;;;;2.14;98.25;100313.59;5001344;28;20159;-83
2022/12/20 08:33:53;;;;;;;43.92;22.15;;;;;;;2.14;98.08;100303.13;4999660;28;20503;-82
2022/12/20 08:36:20;;;;;;;46.58;23.33;;;;;;;2.13;98.16;100289.13;4999285;28;20052;-83
2022/12/20 08:38:46;;;;;;;52.20;25.92;;;;;;;2.16;98.00;100277.66;4992795;28;20048;-82
2022/12/20 08:41:14;;;;;;;48.38;24.67;;;;;;;2.17;98.17;100282.84;5006615;28;20052;-83
2022/12/20 08:43:41;;;;;;;47.60;22.90;;;;;;;2.19;98.07;100282.78;4989728;28;20056;-84
2022/12/20 08:46:09;;;;;;;49.72;25.10;;;;;;;2.21;98.23;100273.06;5021893;28;20045;-83
2022/12/20 08:48:36;;;;;;;40.38;21.95;;;;;;;2.22;98.25;100282.63;4990384;28;20100;-83
2022/12/20 08:51:05;;;;;;;46.22;22.58;;;;;;;2.23;98.33;100271.22;5003697;28;20886;-84
2022/12/20 08:53:33;;;;;;;43.35;22.02;;;;;;;2.24;98.03;100274.69;5003472;28;20071;-83
2022/12/20 08:56:04;;;;;;;47.28;21.80;;;;;;;2.26;98.30;100273.69;5003349;28;20052;-83
2022/12/20 08:58:31;;;;;;;50.83;23.92;;;;;;;2.29;98.26;100267.47;5020861;28;20099;-83
2022/12/20 09:01:01;;;;;;;44.42;20.42;;;;;;;2.32;98.95;100277.81;4971014;28;20446;-84
2022/12/20 09:03:33;;;;;;;42.80;19.55;;;;;;;2.37;98.78;100281.06;4976362;28;20060;-83
2022/12/20 09:06:00;;;;;;;36.47;19.42;;;;;;;2.38;98.92;100273.13;5006253;28;20052;-84
2022/12/20 09:08:27;;;;;;;39.50;19.95;;;;;;;2.42;98.84;100267.72;4990740;28;20491;-84
2022/12/20 09:11:05;;;;;;;49.40;22.27;;;;;;;2.41;98.46;100260.78;5002260;28;20507;-84
2022/12/20 09:13:32;;;;;;;39.17;22.25;;;;;;;2.43;98.70;100258.97;5004617;28;20519;-84
2022/12/20 09:16:08;;;;;;;45.40;22.42;;;;;;;2.46;98.59;100249.16;4985497;28;20053;-84
2022/12/20 09:18:35;;;;;;;36.25;18.15;;;;;;;2.50;98.57;100257.75;5008041;28;20128;-84
2022/12/20 09:21:03;;;;;;;33.95;19.33;;;;;;;2.51;98.98;100248.94;4987688;28;20059;-83
2022/12/20 09:23:31;;;;;;;44.40;21.88;;;;;;;2.52;99.13;100262.00;5006247;28;20051;-83
2022/12/20 09:26:05;;;;;;;36.85;19.25;;;;;;;2.54;98.86;100261.91;5006529;28;20057;-82
2022/12/20 09:28:33;;;;;;;45.10;22.13;;;;;;;2.58;99.07;100269.53;5022728;28;20045;-83
2022/12/20 09:31:04;;;;;;;48.80;23.67;;;;;;;2.60;99.70;100256.38;4991140;28;20543;-84
2022/12/20 09:33:33;;;;;;;41.90;21.98;;;;;;;2.57;99.34;100260.00;4999225;28;20503;-83
2022/12/20 09:36:01;;;;;;;59.17;26.55;;;;;;;2.58;99.68;100256.44;5023655;28;20345;-83
2022/12/20 09:38:28;;;;;;;52.88;24.00;;;;;;;2.59;99.66;100244.16;5021432;28;20064;-83
2022/12/20 09:40:57;;;;;;;52.60;25.50;;;;;;;2.57;99.42;100249.50;5005655;28;20553;-83
2022/12/20 09:47:14;;;;;;;42.03;21.58;;;;;;;2.54;99.15;100248.78;4944574;28;21947;-84
2022/12/20 09:49:43;;;;;;;42.35;21.45;;;;;;;2.57;99.04;100239.03;5020803;28;20040;-83
2022/12/20 09:52:19;;;;;;;45.58;21.98;;;;;;;2.57;98.80;100240.78;4987426;28;20128;-83
2022/12/20 09:55:21;;;;;;;45.67;19.52;;;;;;;2.56;98.71;100236.47;4998349;28;20041;-83
2022/12/20 09:57:54;;;;;;;43.75;19.35;;;;;;;2.60;98.82;100244.09;4976487;28;20061;-83
2022/12/20 10:00:21;;;;;;;41.35;21.50;;;;;;;2.65;99.49;100232.56;5024577;28;20047;-83
2022/12/20 10:02:47;;;;;;;53.15;25.27;;;;;;;2.67;99.49;100233.31;4986227;28;20060;-83
2022/12/20 10:05:49;;;;;;;50.25;24.33;;;;;;;2.69;99.61;100240.19;5007600;28;20033;-83
2022/12/20 10:08:41;;;;;;;51.80;26.27;;;;;;;2.69;99.71;100231.47;4980765;28;20492;-84
2022/12/20 10:11:10;;;;;;;52.55;27.23;;;;;;;2.71;99.77;100235.72;4983958;28;20077;-84
2022/12/20 10:13:51;;;;;;;48.35;26.23;;;;;;;2.71;99.85;100230.47;5037848;28;20552;-83
2022/12/20 10:16:47;;;;;;;46.20;23.83;;;;;;;2.74;99.94;100229.47;4927973;28;20052;-83
2022/12/20 10:19:18;;;;;;;48.78;26.25;;;;;;;2.74;99.96;100232.94;4920555;28;20572;-83
2022/12/20 10:21:54;;;;;;;41.05;20.50;;;;;;;2.77;99.47;100226.69;4946237;28;20050;-83
2022/12/20 10:24:29;;;;;;;47.58;23.67;;;;;;;2.77;100.00;100221.44;4943766;28;20053;-84
2022/12/20 10:26:59;;;;;;;54.88;24.95;;;;;;;2.79;99.88;100223.06;4977082;28;20104;-83
2022/12/20 10:29:25;;;;;;;55.38;26.85;;;;;;;2.81;99.59;100209.88;4946673;28;20039;-83
2022/12/20 10:31:58;;;;;;;47.67;23.90;;;;;;;2.81;100.00;100215.97;4959681;28;20165;-84
2022/12/20 10:34:25;;;;;;;48.63;24.02;;;;;;;2.85;100.00;100216.69;4949137;28;20046;-83
2022/12/20 10:37:13;;;;;;;48.70;22.15;;;;;;;2.82;100.00;100201.94;4951233;28;20060;-83
2022/12/20 10:39:46;;;;;;;49.35;24.00;;;;;;;2.88;100.00;100202.56;4925558;28;20068;-82
2022/12/20 10:42:27;;;;;;;49.63;26.45;;;;;;;2.87;100.00;100198.22;4924167;28;20046;-83
2022/12/20 10:44:54;;;;;;;51.08;25.55;;;;;;;2.90;100.00;100196.31;4917430;28;20153;-83
2022/12/20 10:47:33;;;;;;;53.42;28.55;;;;;;;2.90;100.00;100187.56;4999748;28;20037;-82
2022/12/20 10:50:15;;;;;;;45.33;22.25;;;;;;;2.87;100.00;100185.94;5020231;28;20087;-83
2022/12/20 10:52:43;;;;;;;44.45;24.15;;;;;;;2.90;100.00;100182.31;4944302;28;20071;-83
2022/12/20 10:55:36;;;;;;;51.03;26.27;;;;;;;2.86;100.00;100183.44;4982462;28;20037;-84
2022/12/20 10:58:21;;;;;;;51.33;27.67;;;;;;;2.86;100.00;100184.28;4939605;28;20045;-84
2022/12/20 11:00:48;;;;;;;53.38;24.88;;;;;;;2.91;100.00;100181.41;4972721;28;20052;-83
2022/12/20 11:03:18;;;;;;;53.67;25.63;;;;;;;2.91;100.00;100182.25;5008540;28;20654;-84
2022/12/20 11:05:58;;;;;;;52.55;24.90;;;;;;;2.91;100.00;100186.66;5022828;28;20122;-86
2022/12/20 11:08:27;;;;;;;52.78;24.35;;;;;;;2.94;100.00;100176.00;4970423;28;20478;-85
2022/12/20 11:11:18;;;;;;;51.75;27.67;;;;;;;2.93;100.00;100169.91;4948614;28;20055;-84
2022/12/20 11:13:45;;;;;;;48.72;25.85;;;;;;;2.94;100.00;100168.13;4971501;28;20056;-83
2022/12/20 11:16:44;;;;;;;55.22;26.42;;;;;;;2.94;100.00;100162.88;4975269;28;20109;-83
2022/12/20 11:19:32;;;;;;;55.58;25.35;;;;;;;2.95;100.00;100157.59;4942718;28;20099;-83
2022/12/20 11:22:32;;;;;;;52.17;27.38;;;;;;;2.98;100.00;100152.16;4957733;28;20051;-83
2022/12/20 11:25:14;;;;;;;50.15;26.25;;;;;;;3.02;100.00;100144.97;4959264;28;20501;-84
2022/12/20 11:27:54;;;;;;;49.25;27.20;;;;;;;3.05;100.00;100139.56;4987243;28;20049;-84
2022/12/20 11:30:26;;;;;;;42.47;25.20;;;;;;;3.09;100.00;100132.38;5017073;28;20056;-83
2022/12/20 11:33:05;;;;;;;51.35;27.67;;;;;;;3.13;100.00;100128.66;4985576;28;20041;-85
2022/12/20 11:35:39;;;;;;;56.63;26.75;;;;;;;3.16;100.00;100123.28;4986904;28;20064;-83
2022/12/20 11:38:08;;;;;;;;;;;;;;;3.11;100.00;100107.78;5024000;28;20051;-84
2022/12/20 11:40:39;;;;;;;53.33;25.58;;;;;;;3.21;100.00;100110.75;5014288;28;19971;-84
2022/12/20 11:43:22;;;;;;;48.28;24.65;;;;;;;3.21;100.00;100113.38;5003429;28;20102;-84
2022/12/20 11:46:04;;;;;;;55.67;27.63;;;;;;;3.24;100.00;100106.19;4970814;28;20128;-84
2022/12/20 11:48:45;;;;;;;56.30;27.60;;;;;;;3.24;100.00;100100.94;4983607;28;20047;-85
2022/12/20 11:51:21;;;;;;;48.28;26.17;;;;;;;3.24;100.00;100095.69;4982846;28;20033;-85
2022/12/20 11:53:56;;;;;;;59.30;29.75;;;;;;;3.26;100.00;100092.97;4988970;28;20052;-85
2022/12/20 11:56:34;;;;;;;50.85;25.10;;;;;;;3.25;100.00;100089.50;5003000;28;20053;-84
2022/12/20 11:59:19;;;;;;;59.05;29.50;;;;;;;3.25;100.00;100078.16;4986764;28;20057;-84
2022/12/20 12:02:08;;;;;;;44.20;24.02;;;;;;;3.24;100.00;100082.56;4971279;28;20046;-84
2022/12/20 12:04:54;;;;;;;51.00;24.40;;;;;;;3.26;100.00;100077.25;4988757;28;20049;-84
2022/12/20 12:07:26;;;;;;;47.53;25.85;;;;;;;3.29;100.00;100074.44;4952802;28;20550;-84
2022/12/20 12:10:03;;;;;;;41.22;22.70;;;;;;;3.28;100.00;100077.13;4983667;28;20052;-84
2022/12/20 12:12:35;;;;;;;39.78;22.58;;;;;;;3.31;100.00;100087.47;5020826;28;20044;-84
2022/12/20 12:15:14;;;;;;;66.43;30.48;;;;;;;3.32;100.00;100081.31;5008731;28;20073;-84
2022/12/20 12:18:07;;;;;;;59.80;29.55;;;;;;;3.31;100.00;100079.59;5007897;28;20049;-84
2022/12/20 12:21:00;;;;;;;77.85;34.13;;;;;;;3.35;100.00;100068.00;4921876;28;20044;-84
2022/12/20 12:23:46;;;;;;;57.78;26.73;;;;;;;3.34;100.00;100064.53;4972418;28;21147;-84
2022/12/20 12:26:27;;;;;;;57.00;31.98;;;;;;;3.34;100.00;100067.16;4989339;28;20036;-84
2022/12/20 12:28:59;;;;;;;47.53;26.85;;;;;;;3.37;100.00;100069.63;4977118;28;20049;-84
2022/12/20 12:31:39;;;;;;;59.00;30.02;;;;;;;3.36;100.00;100062.69;4978769;28;20513;-84
2022/12/20 12:38:13;;;;;;;56.13;30.10;;;;;;;3.38;100.00;100038.94;4923197;28;20077;-84
2022/12/20 12:40:54;;;;;;;51.53;25.88;;;;;;;3.40;100.00;100039.72;4936456;28;21217;-86
2022/12/20 12:43:39;;;;;;;55.85;29.23;;;;;;;3.40;100.00;100037.09;4952136;28;20046;-84
2022/12/20 12:46:12;;;;;;;44.78;24.77;;;;;;;3.44;100.00;100049.13;4949965;28;20061;-84
2022/12/20 12:56:24;;;;;;;60.08;32.13;;;;;;;3.47;100.00;100049.78;4924859;28;20053;-84
2022/12/20 13:04:05;;;;;;;58.10;28.50;;;;;;;3.50;100.00;100024.31;4944683;28;20045;-85
2022/12/20 13:06:35;;;;;;;57.40;26.17;;;;;;;3.52;100.00;100030.31;4992045;28;20052;-83